GAP2922 RPLK-RPLL
Flight info
| Callsign | GAP2922 |
|---|---|
| Flight time | 0h 50m |
| Altitude | 26000 |
| Route | NGA2B NGA W9 AKDAP AKDAP3R |
| Aircraft | A320/M-SDE3FGHIRWY/LB1 |
Departure
| Time | 2026-04-21 06:17 |
|---|---|
| Airport | Bicol International Airport (RPLK) |
Arrival
| Time | 2026-04-21 07:08 |
|---|---|
| Airport | Ninoy Aquino International Airport (RPLL) |
| Time | Latitude | Longitude | Altitude | Speed | Heading |
|---|---|---|---|---|---|
| 2026-04-21 05:59 | 13.11238 | 123.68103 | 327 ft | 0 kts | 137° |
| 2026-04-21 06:07 | 13.11241 | 123.68101 | 327 ft | 2 kts | 136° |
| 2026-04-21 06:07 | 13.11252 | 123.68090 | 327 ft | 2 kts | 137° |
| 2026-04-21 06:08 | 13.11262 | 123.68079 | 327 ft | 2 kts | 137° |
| 2026-04-21 06:08 | 13.11274 | 123.68069 | 327 ft | 2 kts | 137° |
| 2026-04-21 06:08 | 13.11282 | 123.68060 | 327 ft | 0 kts | 137° |
| 2026-04-21 06:08 | 13.11292 | 123.68047 | 327 ft | 2 kts | 101° |
| 2026-04-21 06:09 | 13.11291 | 123.68030 | 327 ft | 2 kts | 66° |
| 2026-04-21 06:09 | 13.11285 | 123.68021 | 327 ft | 1 kts | 44° |
| 2026-04-21 06:09 | 13.11282 | 123.68017 | 327 ft | 0 kts | 46° |
| 2026-04-21 06:11 | 13.11284 | 123.68019 | 327 ft | 0 kts | 46° |
| 2026-04-21 06:11 | 13.11295 | 123.68031 | 327 ft | 3 kts | 48° |
| 2026-04-21 06:11 | 13.11311 | 123.68049 | 327 ft | 1 kts | 47° |
| 2026-04-21 06:12 | 13.11327 | 123.68066 | 328 ft | 4 kts | 47° |
| 2026-04-21 06:12 | 13.11356 | 123.68098 | 327 ft | 7 kts | 39° |
| 2026-04-21 06:12 | 13.11403 | 123.68091 | 327 ft | 8 kts | 318° |
| 2026-04-21 06:12 | 13.11449 | 123.68049 | 328 ft | 9 kts | 318° |
| 2026-04-21 06:13 | 13.11471 | 123.67992 | 327 ft | 9 kts | 240° |
| 2026-04-21 06:13 | 13.11419 | 123.67932 | 327 ft | 12 kts | 227° |
| 2026-04-21 06:13 | 13.11351 | 123.67857 | 327 ft | 15 kts | 227° |
| 2026-04-21 06:13 | 13.11268 | 123.67767 | 327 ft | 18 kts | 227° |
| 2026-04-21 06:14 | 13.11174 | 123.67661 | 327 ft | 21 kts | 227° |
| 2026-04-21 06:14 | 13.11067 | 123.67543 | 327 ft | 23 kts | 227° |
| 2026-04-21 06:14 | 13.10953 | 123.67418 | 327 ft | 24 kts | 227° |
| 2026-04-21 06:14 | 13.10832 | 123.67284 | 327 ft | 26 kts | 227° |
| 2026-04-21 06:15 | 13.10706 | 123.67146 | 327 ft | 24 kts | 229° |
| 2026-04-21 06:15 | 13.10579 | 123.67059 | 327 ft | 20 kts | 199° |
| 2026-04-21 06:15 | 13.10479 | 123.67004 | 327 ft | 11 kts | 232° |
| 2026-04-21 06:15 | 13.10507 | 123.66952 | 327 ft | 9 kts | 339° |
| 2026-04-21 06:16 | 13.10540 | 123.66961 | 327 ft | 0 kts | 47° |
| 2026-04-21 06:16 | 13.10545 | 123.66966 | 327 ft | 6 kts | 47° |
| 2026-04-21 06:16 | 13.10747 | 123.67192 | 327 ft | 78 kts | 47° |
| 2026-04-21 06:17 | 13.11272 | 123.67769 | 328 ft | 138 kts | 47° |
| 2026-04-21 06:17 | 13.11972 | 123.68603 | 600 ft | 162 kts | 51° |
| 2026-04-21 06:17 | 13.12719 | 123.69446 | 1264 ft | 160 kts | 50° |
| 2026-04-21 06:17 | 13.13416 | 123.70294 | 1965 ft | 156 kts | 67° |
| 2026-04-21 06:18 | 13.13523 | 123.71411 | 2443 ft | 170 kts | 100° |
| 2026-04-21 06:18 | 13.12964 | 123.72523 | 2899 ft | 190 kts | 132° |
| 2026-04-21 06:18 | 13.11736 | 123.73158 | 3384 ft | 213 kts | 169° |
| 2026-04-21 06:18 | 13.10213 | 123.72826 | 3776 ft | 242 kts | 210° |
| 2026-04-21 06:19 | 13.09036 | 123.71519 | 4303 ft | 261 kts | 247° |
| 2026-04-21 06:19 | 13.08814 | 123.69677 | 4983 ft | 267 kts | 285° |
| 2026-04-21 06:19 | 13.09465 | 123.67924 | 5749 ft | 268 kts | 297° |
| 2026-04-21 06:19 | 13.10232 | 123.66173 | 6580 ft | 270 kts | 294° |
| 2026-04-21 06:20 | 13.10860 | 123.64364 | 7362 ft | 273 kts | 292° |
| 2026-04-21 06:20 | 13.11788 | 123.62695 | 8108 ft | 271 kts | 315° |
| 2026-04-21 06:20 | 13.13268 | 123.61459 | 8622 ft | 282 kts | 328° |
| 2026-04-21 06:20 | 13.14938 | 123.60330 | 9124 ft | 294 kts | 329° |
| 2026-04-21 06:21 | 13.16642 | 123.59180 | 9827 ft | 298 kts | 328° |
| 2026-04-21 06:21 | 13.18386 | 123.57973 | 10498 ft | 303 kts | 327° |
| 2026-04-21 06:21 | 13.20163 | 123.56721 | 10841 ft | 320 kts | 327° |
| 2026-04-21 06:21 | 13.22049 | 123.55371 | 11129 ft | 337 kts | 325° |
| 2026-04-21 06:22 | 13.23937 | 123.53870 | 11395 ft | 353 kts | 321° |
| 2026-04-21 06:22 | 13.25808 | 123.52160 | 11644 ft | 369 kts | 318° |
| 2026-04-21 06:22 | 13.27712 | 123.50316 | 11879 ft | 383 kts | 317° |
| 2026-04-21 06:22 | 13.29694 | 123.48380 | 12108 ft | 396 kts | 317° |
| 2026-04-21 06:23 | 13.31703 | 123.46423 | 12387 ft | 405 kts | 317° |
| 2026-04-21 06:23 | 13.33767 | 123.44419 | 12832 ft | 408 kts | 317° |
| 2026-04-21 06:23 | 13.35847 | 123.42415 | 13299 ft | 410 kts | 318° |
| 2026-04-21 06:23 | 13.38034 | 123.40491 | 13749 ft | 412 kts | 322° |
| 2026-04-21 06:24 | 13.40312 | 123.38738 | 14173 ft | 414 kts | 325° |
| 2026-04-21 06:24 | 13.42747 | 123.37087 | 14592 ft | 417 kts | 327° |
| 2026-04-21 06:24 | 13.45175 | 123.35503 | 14981 ft | 419 kts | 328° |
| 2026-04-21 06:24 | 13.47687 | 123.33871 | 15373 ft | 421 kts | 327° |
| 2026-04-21 06:25 | 13.50359 | 123.32129 | 15776 ft | 423 kts | 327° |
| 2026-04-21 06:25 | 13.52863 | 123.30492 | 16115 ft | 426 kts | 327° |
| 2026-04-21 06:25 | 13.55359 | 123.28826 | 16447 ft | 428 kts | 324° |
| 2026-04-21 06:25 | 13.57608 | 123.26817 | 16763 ft | 430 kts | 313° |
| 2026-04-21 06:26 | 13.59468 | 123.24368 | 17087 ft | 431 kts | 302° |
| 2026-04-21 06:26 | 13.60896 | 123.21660 | 17408 ft | 432 kts | 296° |
| 2026-04-21 06:26 | 13.62192 | 123.18913 | 17714 ft | 434 kts | 295° |
| 2026-04-21 06:26 | 13.63506 | 123.16083 | 18014 ft | 435 kts | 295° |
| 2026-04-21 06:27 | 13.64807 | 123.13296 | 18305 ft | 437 kts | 295° |
| 2026-04-21 06:27 | 13.66140 | 123.10466 | 18594 ft | 439 kts | 295° |
| 2026-04-21 06:27 | 13.67473 | 123.07650 | 18879 ft | 440 kts | 295° |
| 2026-04-21 06:27 | 13.68817 | 123.04821 | 19148 ft | 441 kts | 295° |
| 2026-04-21 06:28 | 13.70168 | 123.01984 | 19415 ft | 443 kts | 295° |
| 2026-04-21 06:28 | 13.71528 | 122.99129 | 19671 ft | 444 kts | 295° |
| 2026-04-21 06:28 | 13.72869 | 122.96316 | 19914 ft | 446 kts | 295° |
| 2026-04-21 06:28 | 13.74244 | 122.93429 | 20152 ft | 447 kts | 295° |
| 2026-04-21 06:29 | 13.75617 | 122.90544 | 20388 ft | 449 kts | 295° |
| 2026-04-21 06:29 | 13.77000 | 122.87637 | 20625 ft | 450 kts | 295° |
| 2026-04-21 06:29 | 13.78387 | 122.84721 | 20853 ft | 451 kts | 295° |
| 2026-04-21 06:29 | 13.79767 | 122.81816 | 21068 ft | 453 kts | 295° |
| 2026-04-21 06:30 | 13.81139 | 122.78928 | 21269 ft | 455 kts | 295° |
| 2026-04-21 06:30 | 13.82531 | 122.76004 | 21473 ft | 456 kts | 295° |
| 2026-04-21 06:30 | 13.83940 | 122.73043 | 21682 ft | 458 kts | 295° |
| 2026-04-21 06:30 | 13.84854 | 122.71121 | 21817 ft | 458 kts | 295° |
| 2026-04-21 06:31 | 13.86735 | 122.67163 | 22081 ft | 460 kts | 295° |
| 2026-04-21 06:31 | 13.88142 | 122.64199 | 22291 ft | 461 kts | 295° |
| 2026-04-21 06:31 | 13.89551 | 122.61229 | 22501 ft | 462 kts | 295° |
| 2026-04-21 06:31 | 13.90952 | 122.58272 | 22698 ft | 463 kts | 295° |
| 2026-04-21 06:32 | 13.92358 | 122.55303 | 22897 ft | 464 kts | 295° |
| 2026-04-21 06:32 | 13.93775 | 122.52311 | 23084 ft | 465 kts | 295° |
| 2026-04-21 06:32 | 13.95204 | 122.49294 | 23267 ft | 466 kts | 295° |
| 2026-04-21 06:32 | 13.96625 | 122.46294 | 23455 ft | 467 kts | 295° |
| 2026-04-21 06:33 | 13.98048 | 122.43285 | 23650 ft | 468 kts | 295° |
| 2026-04-21 06:33 | 13.99477 | 122.40264 | 23824 ft | 470 kts | 295° |
| 2026-04-21 06:33 | 14.00908 | 122.37237 | 23985 ft | 471 kts | 295° |
| 2026-04-21 06:33 | 14.02340 | 122.34209 | 24149 ft | 472 kts | 295° |
| 2026-04-21 06:34 | 14.03893 | 122.30924 | 24325 ft | 473 kts | 295° |
| 2026-04-21 06:34 | 14.05357 | 122.27827 | 24497 ft | 474 kts | 295° |
| 2026-04-21 06:34 | 14.06808 | 122.24753 | 24656 ft | 475 kts | 295° |
| 2026-04-21 06:34 | 14.08259 | 122.21677 | 24807 ft | 476 kts | 295° |
| 2026-04-21 06:35 | 14.09738 | 122.18542 | 24959 ft | 477 kts | 295° |
| 2026-04-21 06:35 | 14.11195 | 122.15451 | 25109 ft | 477 kts | 295° |
| 2026-04-21 06:35 | 14.12807 | 122.12030 | 25258 ft | 478 kts | 295° |
| 2026-04-21 06:35 | 14.14327 | 122.08804 | 25388 ft | 478 kts | 294° |
| 2026-04-21 06:36 | 14.15862 | 122.05542 | 25521 ft | 479 kts | 295° |
| 2026-04-21 06:36 | 14.17396 | 122.02283 | 25388 ft | 473 kts | 295° |
| 2026-04-21 06:36 | 14.18894 | 121.99095 | 24480 ft | 472 kts | 295° |
| 2026-04-21 06:36 | 14.20336 | 121.96026 | 23434 ft | 471 kts | 295° |
| 2026-04-21 06:37 | 14.21736 | 121.93045 | 23187 ft | 452 kts | 295° |
| 2026-04-21 06:37 | 14.23004 | 121.90267 | 22921 ft | 437 kts | 293° |
| 2026-04-21 06:37 | 14.24215 | 121.87458 | 22429 ft | 429 kts | 292° |
| 2026-04-21 06:37 | 14.25397 | 121.84673 | 21953 ft | 421 kts | 292° |
| 2026-04-21 06:38 | 14.26562 | 121.81931 | 21507 ft | 413 kts | 292° |
| 2026-04-21 06:38 | 14.27705 | 121.79245 | 21080 ft | 405 kts | 292° |
| 2026-04-21 06:38 | 14.28828 | 121.76612 | 20694 ft | 396 kts | 293° |
| 2026-04-21 06:38 | 14.29925 | 121.74046 | 20347 ft | 387 kts | 293° |
| 2026-04-21 06:39 | 14.31003 | 121.71526 | 19952 ft | 381 kts | 293° |
| 2026-04-21 06:39 | 14.32052 | 121.69076 | 19560 ft | 375 kts | 293° |
| 2026-04-21 06:39 | 14.33097 | 121.66632 | 19171 ft | 369 kts | 293° |
| 2026-04-21 06:39 | 14.34124 | 121.64232 | 18782 ft | 364 kts | 293° |
| 2026-04-21 06:40 | 14.35145 | 121.61846 | 18405 ft | 358 kts | 293° |
| 2026-04-21 06:40 | 14.36135 | 121.59529 | 18034 ft | 353 kts | 293° |
| 2026-04-21 06:40 | 14.37126 | 121.57213 | 17668 ft | 348 kts | 293° |
| 2026-04-21 06:40 | 14.38084 | 121.54971 | 17324 ft | 343 kts | 293° |
| 2026-04-21 06:41 | 14.39043 | 121.52728 | 16993 ft | 337 kts | 293° |
| 2026-04-21 06:41 | 14.39977 | 121.50539 | 16693 ft | 333 kts | 294° |
| 2026-04-21 06:41 | 14.40895 | 121.48383 | 16378 ft | 328 kts | 294° |
| 2026-04-21 06:41 | 14.41807 | 121.46245 | 16021 ft | 324 kts | 294° |
| 2026-04-21 06:42 | 14.42715 | 121.44116 | 15635 ft | 322 kts | 295° |
| 2026-04-21 06:42 | 14.43613 | 121.42012 | 15257 ft | 321 kts | 295° |
| 2026-04-21 06:42 | 14.44517 | 121.39895 | 14867 ft | 320 kts | 295° |
| 2026-04-21 06:42 | 14.45402 | 121.37820 | 14502 ft | 318 kts | 295° |
| 2026-04-21 06:43 | 14.46294 | 121.35726 | 14119 ft | 317 kts | 295° |
| 2026-04-21 06:43 | 14.47175 | 121.33659 | 13739 ft | 315 kts | 295° |
| 2026-04-21 06:43 | 14.48055 | 121.31591 | 13352 ft | 314 kts | 295° |
| 2026-04-21 06:43 | 14.48902 | 121.29548 | 12978 ft | 312 kts | 291° |
| 2026-04-21 06:44 | 14.49158 | 121.27339 | 12659 ft | 310 kts | 261° |
| 2026-04-21 06:44 | 14.48401 | 121.25275 | 12339 ft | 307 kts | 241° |
| 2026-04-21 06:44 | 14.47266 | 121.23399 | 12045 ft | 302 kts | 237° |
| 2026-04-21 06:44 | 14.46122 | 121.21588 | 11816 ft | 295 kts | 238° |
| 2026-04-21 06:45 | 14.45029 | 121.19803 | 11571 ft | 290 kts | 239° |
| 2026-04-21 06:45 | 14.43990 | 121.18037 | 11262 ft | 288 kts | 239° |
| 2026-04-21 06:45 | 14.42969 | 121.16257 | 10912 ft | 287 kts | 240° |
| 2026-04-21 06:45 | 14.41962 | 121.14471 | 10579 ft | 286 kts | 240° |
| 2026-04-21 06:46 | 14.40979 | 121.12714 | 10259 ft | 284 kts | 240° |
| 2026-04-21 06:46 | 14.39997 | 121.10951 | 9928 ft | 283 kts | 240° |
| 2026-04-21 06:46 | 14.39011 | 121.09177 | 9587 ft | 282 kts | 240° |
| 2026-04-21 06:46 | 14.38050 | 121.07449 | 9261 ft | 281 kts | 240° |
| 2026-04-21 06:47 | 14.37072 | 121.05688 | 8937 ft | 280 kts | 240° |
| 2026-04-21 06:47 | 14.36115 | 121.03968 | 8624 ft | 278 kts | 240° |
| 2026-04-21 06:47 | 14.35154 | 121.02242 | 8315 ft | 276 kts | 240° |
| 2026-04-21 06:47 | 14.34206 | 121.00539 | 8015 ft | 275 kts | 240° |
| 2026-04-21 06:48 | 14.33253 | 120.98824 | 7693 ft | 274 kts | 240° |
| 2026-04-21 06:48 | 14.32315 | 120.97138 | 7380 ft | 272 kts | 240° |
| 2026-04-21 06:48 | 14.31370 | 120.95439 | 7068 ft | 271 kts | 240° |
| 2026-04-21 06:48 | 14.30433 | 120.93755 | 6752 ft | 269 kts | 240° |
| 2026-04-21 06:49 | 14.29504 | 120.92085 | 6474 ft | 267 kts | 240° |
| 2026-04-21 06:49 | 14.28629 | 120.90450 | 6145 ft | 260 kts | 247° |
| 2026-04-21 06:49 | 14.28385 | 120.88631 | 5747 ft | 259 kts | 284° |
| 2026-04-21 06:49 | 14.29225 | 120.87051 | 5359 ft | 250 kts | 322° |
| 2026-04-21 06:50 | 14.30697 | 120.86161 | 5013 ft | 246 kts | 339° |
| 2026-04-21 06:50 | 14.32287 | 120.85476 | 4652 ft | 247 kts | 340° |
| 2026-04-21 06:50 | 14.33839 | 120.84754 | 4285 ft | 244 kts | 337° |
| 2026-04-21 06:50 | 14.35371 | 120.83961 | 3927 ft | 246 kts | 335° |
| 2026-04-21 06:51 | 14.36881 | 120.83126 | 3575 ft | 247 kts | 336° |
| 2026-04-21 06:51 | 14.38490 | 120.82646 | 3210 ft | 242 kts | 5° |
| 2026-04-21 06:51 | 14.40065 | 120.83093 | 2961 ft | 228 kts | 38° |
| 2026-04-21 06:51 | 14.41097 | 120.84228 | 2974 ft | 206 kts | 60° |
| 2026-04-21 06:52 | 14.41790 | 120.85461 | 2965 ft | 192 kts | 65° |
| 2026-04-21 06:52 | 14.42411 | 120.86668 | 2796 ft | 190 kts | 65° |
| 2026-04-21 06:52 | 14.43036 | 120.87853 | 2637 ft | 182 kts | 64° |
| 2026-04-21 06:52 | 14.43648 | 120.88977 | 2399 ft | 178 kts | 64° |
| 2026-04-21 06:53 | 14.44251 | 120.90064 | 2151 ft | 171 kts | 64° |
| 2026-04-21 06:53 | 14.44826 | 120.91095 | 1911 ft | 158 kts | 64° |
| 2026-04-21 06:53 | 14.45346 | 120.92023 | 1737 ft | 142 kts | 64° |
| 2026-04-21 06:53 | 14.45829 | 120.92888 | 1547 ft | 136 kts | 64° |
| 2026-04-21 06:54 | 14.46297 | 120.93720 | 1386 ft | 135 kts | 65° |
| 2026-04-21 06:54 | 14.46769 | 120.94569 | 1230 ft | 135 kts | 65° |
| 2026-04-21 06:54 | 14.47231 | 120.95402 | 1061 ft | 133 kts | 64° |
| 2026-04-21 06:54 | 14.47695 | 120.96242 | 898 ft | 135 kts | 64° |
| 2026-04-21 06:55 | 14.48164 | 120.97087 | 741 ft | 133 kts | 64° |
| 2026-04-21 06:55 | 14.48621 | 120.97915 | 562 ft | 133 kts | 62° |
| 2026-04-21 06:55 | 14.49084 | 120.98736 | 413 ft | 132 kts | 65° |
| 2026-04-21 06:55 | 14.49543 | 120.99569 | 210 ft | 133 kts | 66° |
| 2026-04-21 06:56 | 14.50014 | 121.00427 | 89 ft | 130 kts | 64° |
| 2026-04-21 06:56 | 14.50477 | 121.01197 | 267 ft | 136 kts | 67° |
| 2026-04-21 06:56 | 14.50959 | 121.02058 | 958 ft | 142 kts | 63° |
| 2026-04-21 06:56 | 14.51426 | 121.02896 | 1865 ft | 137 kts | 64° |
| 2026-04-21 06:57 | 14.51877 | 121.03790 | 2538 ft | 142 kts | 75° |
| 2026-04-21 06:57 | 14.51777 | 121.04825 | 2824 ft | 159 kts | 119° |
| 2026-04-21 06:57 | 14.50909 | 121.05625 | 3157 ft | 179 kts | 144° |
| 2026-04-21 06:57 | 14.49749 | 121.06271 | 3521 ft | 197 kts | 149° |
| 2026-04-21 06:58 | 14.48465 | 121.06900 | 3869 ft | 215 kts | 158° |
| 2026-04-21 06:58 | 14.46921 | 121.07008 | 3921 ft | 228 kts | 192° |
| 2026-04-21 06:58 | 14.45538 | 121.06228 | 3962 ft | 234 kts | 224° |
| 2026-04-21 06:58 | 14.44559 | 121.04853 | 3990 ft | 237 kts | 237° |
| 2026-04-21 06:59 | 14.43740 | 121.03374 | 3994 ft | 237 kts | 239° |
| 2026-04-21 06:59 | 14.42953 | 121.01873 | 3994 ft | 236 kts | 240° |
| 2026-04-21 06:59 | 14.42178 | 121.00379 | 3993 ft | 236 kts | 240° |
| 2026-04-21 06:59 | 14.41403 | 120.98883 | 3992 ft | 236 kts | 240° |
| 2026-04-21 07:00 | 14.40622 | 120.97378 | 3987 ft | 236 kts | 240° |
| 2026-04-21 07:00 | 14.39854 | 120.95893 | 3987 ft | 236 kts | 240° |
| 2026-04-21 07:00 | 14.39081 | 120.94408 | 3989 ft | 236 kts | 240° |
| 2026-04-21 07:00 | 14.38303 | 120.92912 | 3987 ft | 236 kts | 240° |
| 2026-04-21 07:01 | 14.37531 | 120.91422 | 3987 ft | 236 kts | 240° |
| 2026-04-21 07:01 | 14.36749 | 120.89912 | 3993 ft | 236 kts | 240° |
| 2026-04-21 07:01 | 14.35205 | 120.86922 | 3990 ft | 236 kts | 241° |
| 2026-04-21 07:02 | 14.34698 | 120.85310 | 3864 ft | 239 kts | 268° |
| 2026-04-21 07:02 | 14.35027 | 120.83662 | 3545 ft | 239 kts | 301° |
| 2026-04-21 07:02 | 14.36145 | 120.82446 | 3267 ft | 232 kts | 335° |
| 2026-04-21 07:02 | 14.37646 | 120.82060 | 3069 ft | 220 kts | 9° |
| 2026-04-21 07:03 | 14.39133 | 120.82452 | 3030 ft | 217 kts | 26° |
| 2026-04-21 07:03 | 14.40354 | 120.83312 | 3002 ft | 211 kts | 51° |
| 2026-04-21 07:03 | 14.41200 | 120.84495 | 2942 ft | 201 kts | 61° |
| 2026-04-21 07:03 | 14.41890 | 120.85709 | 2915 ft | 190 kts | 63° |
| 2026-04-21 07:04 | 14.42538 | 120.86915 | 2747 ft | 189 kts | 64° |
| 2026-04-21 07:04 | 14.43157 | 120.88056 | 2597 ft | 180 kts | 63° |
| 2026-04-21 07:04 | 14.43765 | 120.89163 | 2348 ft | 176 kts | 63° |
| 2026-04-21 07:04 | 14.44365 | 120.90247 | 2106 ft | 171 kts | 64° |
| 2026-04-21 07:05 | 14.44936 | 120.91272 | 1907 ft | 156 kts | 64° |
| 2026-04-21 07:05 | 14.45452 | 120.92198 | 1686 ft | 141 kts | 65° |
| 2026-04-21 07:05 | 14.45922 | 120.93044 | 1505 ft | 135 kts | 66° |
| 2026-04-21 07:05 | 14.46388 | 120.93888 | 1353 ft | 135 kts | 66° |
| 2026-04-21 07:06 | 14.46855 | 120.94733 | 1198 ft | 133 kts | 63° |
| 2026-04-21 07:06 | 14.47314 | 120.95556 | 1036 ft | 132 kts | 67° |
| 2026-04-21 07:06 | 14.47765 | 120.96370 | 880 ft | 131 kts | 64° |
| 2026-04-21 07:06 | 14.48223 | 120.97195 | 712 ft | 131 kts | 64° |
| 2026-04-21 07:07 | 14.48674 | 120.98007 | 552 ft | 130 kts | 63° |
| 2026-04-21 07:07 | 14.49136 | 120.98830 | 329 ft | 133 kts | 67° |
| 2026-04-21 07:07 | 14.49589 | 120.99646 | 185 ft | 130 kts | 68° |
| 2026-04-21 07:07 | 14.50019 | 121.00440 | 82 ft | 121 kts | 63° |
| 2026-04-21 07:08 | 14.50365 | 121.01060 | 82 ft | 70 kts | 60° |
| 2026-04-21 07:08 | 14.50544 | 121.01380 | 82 ft | 43 kts | 60° |
| 2026-04-21 07:08 | 14.50687 | 121.01630 | 82 ft | 35 kts | 51° |
| 2026-04-21 07:08 | 14.50839 | 121.01776 | 82 ft | 16 kts | 37° |
| 2026-04-21 07:09 | 14.50904 | 121.01769 | 82 ft | 9 kts | 304° |
| 2026-04-21 07:09 | 14.50890 | 121.01710 | 82 ft | 9 kts | 237° |
| 2026-04-21 07:09 | 14.50880 | 121.01670 | 82 ft | 5 kts | 329° |
| 2026-04-21 07:09 | 14.50916 | 121.01638 | 82 ft | 8 kts | 320° |
| 2026-04-21 07:10 | 14.50969 | 121.01588 | 82 ft | 12 kts | 314° |
| 2026-04-21 07:10 | 14.51043 | 121.01511 | 82 ft | 16 kts | 314° |
| 2026-04-21 07:10 | 14.51124 | 121.01425 | 82 ft | 17 kts | 314° |
| 2026-04-21 07:10 | 14.51207 | 121.01340 | 82 ft | 12 kts | 315° |
| 2026-04-21 07:11 | 14.51184 | 121.01293 | 82 ft | 8 kts | 216° |
| 2026-04-21 07:11 | 14.51163 | 121.01277 | 82 ft | 0 kts | 216° |